createdAt,value
2023-04-16T00:02:24.855Z,24.83
2023-04-16T00:04:53.643Z,26.07
2023-04-16T00:07:22.431Z,26.27
2023-04-16T00:09:51.151Z,26.13
2023-04-16T00:12:21.530Z,24.93
2023-04-16T00:14:50.292Z,25.63
2023-04-16T00:17:19.096Z,26.57
2023-04-16T00:19:49.117Z,26.57
2023-04-16T00:22:17.877Z,26.43
2023-04-16T00:24:46.563Z,26.67
2023-04-16T00:27:15.464Z,25.50
2023-04-16T00:29:45.558Z,24.33
2023-04-16T00:32:14.662Z,23.00
2023-04-16T00:34:43.680Z,24.23
2023-04-16T00:37:12.690Z,25.13
2023-04-16T00:39:41.474Z,24.50
2023-04-16T00:42:10.302Z,25.23
2023-04-16T00:44:39.309Z,26.30
2023-04-16T00:47:21.865Z,24.23
2023-04-16T00:49:51.469Z,25.60
2023-04-16T00:52:20.062Z,29.90
2023-04-16T00:54:49.290Z,35.07
2023-04-16T00:57:21.104Z,38.70
2023-04-16T00:59:50.006Z,33.07
2023-04-16T01:02:20.589Z,31.90
2023-04-16T01:04:52.311Z,29.30
2023-04-16T01:07:21.487Z,29.93
2023-04-16T01:09:50.164Z,27.80
2023-04-16T01:12:18.795Z,27.23
2023-04-16T01:14:47.982Z,29.13
2023-04-16T01:17:16.754Z,27.37
2023-04-16T01:19:46.922Z,29.07
2023-04-16T01:22:17.336Z,29.33
2023-04-16T01:24:46.481Z,29.97
2023-04-16T01:27:15.452Z,27.97
2023-04-16T01:29:44.144Z,29.93
2023-04-16T01:32:13.398Z,29.70
2023-04-16T01:34:43.258Z,29.90
2023-04-16T01:37:13.902Z,29.50
2023-04-16T01:39:44.051Z,29.77
2023-04-16T01:42:12.872Z,29.13
2023-04-16T01:44:41.576Z,29.20
2023-04-16T01:47:10.696Z,29.20
2023-04-16T01:49:39.594Z,31.07
2023-04-16T01:52:08.809Z,31.33
2023-04-16T01:54:37.514Z,30.67
2023-04-16T01:57:07.732Z,31.93
2023-04-16T01:59:36.449Z,29.67
2023-04-16T02:02:11.164Z,30.83
2023-04-16T02:04:41.440Z,30.30
2023-04-16T02:07:10.908Z,29.80
2023-04-16T02:09:41.624Z,27.90
2023-04-16T02:12:12.461Z,29.77
2023-04-16T02:14:41.408Z,28.03
2023-04-16T02:17:10.593Z,28.70
2023-04-16T02:19:41.853Z,27.23
2023-04-16T02:22:11.915Z,25.53
2023-04-16T02:24:41.465Z,25.23
2023-04-16T02:27:13.269Z,25.63
2023-04-16T02:29:42.845Z,24.70
2023-04-16T02:32:16.549Z,24.27
2023-04-16T02:34:47.454Z,24.00
2023-04-16T02:37:17.618Z,23.97
2023-04-16T02:39:47.505Z,24.70
2023-04-16T02:42:17.752Z,25.07
2023-04-16T02:44:46.558Z,24.70
2023-04-16T02:47:15.549Z,25.30
2023-04-16T02:49:44.328Z,25.73
2023-04-16T02:52:15.070Z,25.00
2023-04-16T02:54:44.488Z,26.10
2023-04-16T02:57:13.202Z,24.90
2023-04-16T02:59:43.220Z,25.03
2023-04-16T03:02:12.159Z,26.67
2023-04-16T03:04:41.049Z,26.03
2023-04-16T03:07:09.863Z,25.13
2023-04-16T03:09:38.859Z,26.90
2023-04-16T03:12:07.699Z,27.60
2023-04-16T03:14:36.320Z,27.33
2023-04-16T03:17:06.491Z,27.43
2023-04-16T03:19:35.205Z,27.40
2023-04-16T03:22:03.925Z,27.03
2023-04-16T03:24:32.731Z,28.77
2023-04-16T03:27:02.020Z,27.53
2023-04-16T03:29:31.194Z,29.87
2023-04-16T03:32:00.458Z,28.27
2023-04-16T03:34:30.753Z,29.00
2023-04-16T03:36:59.522Z,28.93
2023-04-16T03:39:28.322Z,27.53
2023-04-16T03:41:57.215Z,30.27
2023-04-16T03:44:26.146Z,30.13
2023-04-16T03:46:54.882Z,30.13
2023-04-16T03:49:24.060Z,28.47
2023-04-16T03:51:54.946Z,29.67
2023-04-16T03:54:24.060Z,31.77
2023-04-16T03:57:00.156Z,30.43
2023-04-16T03:59:28.982Z,30.87
2023-04-16T04:01:57.761Z,29.63
2023-04-16T04:04:27.808Z,29.80
2023-04-16T04:06:58.090Z,29.77
2023-04-16T04:09:28.272Z,30.03
2023-04-16T04:11:57.139Z,30.23
2023-04-16T04:14:25.930Z,30.23
2023-04-16T04:16:54.639Z,30.13
2023-04-16T04:19:23.853Z,29.73
2023-04-16T04:21:52.655Z,29.83
2023-04-16T04:24:22.945Z,30.23
2023-04-16T04:26:51.807Z,28.80
2023-04-16T04:29:20.746Z,28.60
2023-04-16T04:31:49.576Z,29.00
2023-04-16T04:34:18.406Z,29.57
2023-04-16T04:36:47.119Z,28.37
2023-04-16T04:39:16.374Z,27.60
2023-04-16T04:41:47.434Z,27.63
2023-04-16T04:44:16.396Z,26.73
2023-04-16T04:46:45.019Z,27.97
2023-04-16T04:49:14.311Z,26.70
2023-04-16T04:51:43.137Z,27.90
2023-04-16T04:54:12.290Z,27.17
2023-04-16T04:56:41.075Z,27.23
2023-04-16T04:59:11.642Z,27.80
2023-04-16T05:01:42.248Z,27.33
2023-04-16T05:04:11.264Z,27.93
2023-04-16T05:06:39.946Z,28.03
2023-04-16T05:09:11.698Z,27.87
2023-04-16T05:11:41.925Z,28.73
2023-04-16T05:14:12.304Z,28.50
2023-04-16T05:16:41.090Z,28.67
2023-04-16T05:19:10.018Z,29.17
2023-04-16T05:21:38.946Z,28.93
2023-04-16T05:24:09.000Z,28.93
2023-04-16T05:26:37.716Z,30.03
2023-04-16T05:29:06.508Z,29.20
2023-04-16T05:31:36.858Z,28.87
2023-04-16T05:34:05.542Z,28.43
2023-04-16T05:36:34.183Z,30.00
2023-04-16T05:39:03.298Z,28.27
2023-04-16T05:41:32.129Z,27.07
2023-04-16T05:44:01.196Z,28.77
2023-04-16T05:46:29.960Z,27.07
2023-04-16T05:49:00.121Z,27.53
2023-04-16T05:51:28.934Z,27.97
2023-04-16T05:53:57.709Z,26.87
2023-04-16T05:56:27.144Z,28.30
2023-04-16T05:58:55.900Z,27.47
2023-04-16T06:01:24.574Z,27.57
2023-04-16T06:03:53.257Z,27.83
2023-04-16T06:06:23.386Z,26.27
2023-04-16T06:08:52.202Z,26.57
2023-04-16T06:11:20.908Z,25.83
2023-04-16T06:13:49.577Z,24.80
2023-04-16T06:16:18.543Z,25.00
2023-04-16T06:18:47.232Z,24.80
2023-04-16T06:21:16.205Z,25.33
2023-04-16T06:23:46.314Z,23.73
2023-04-16T06:26:15.084Z,22.63
2023-04-16T06:28:43.666Z,23.63
2023-04-16T06:31:12.517Z,23.97
2023-04-16T06:33:41.142Z,22.97
2023-04-16T06:36:09.774Z,22.73
2023-04-16T06:38:38.792Z,23.10
2023-04-16T06:41:08.881Z,22.27
2023-04-16T06:43:37.575Z,20.43
2023-04-16T06:46:06.454Z,21.30
2023-04-16T06:48:35.070Z,21.27
2023-04-16T06:51:03.785Z,21.37
2023-04-16T06:53:33.040Z,21.50
2023-04-16T06:56:01.840Z,22.27
2023-04-16T06:58:31.948Z,22.97
2023-04-16T07:01:00.811Z,21.80
2023-04-16T07:03:29.737Z,24.23
2023-04-16T07:05:58.572Z,22.93
2023-04-16T07:08:27.282Z,21.67
2023-04-16T07:10:56.175Z,20.90
2023-04-16T07:13:24.905Z,20.73
2023-04-16T07:15:55.023Z,20.10
2023-04-16T07:18:23.692Z,20.70
2023-04-16T07:20:52.386Z,20.87
2023-04-16T07:23:21.150Z,20.67
2023-04-16T07:25:49.740Z,20.30
2023-04-16T07:28:18.372Z,20.23
2023-04-16T07:30:47.194Z,21.37
2023-04-16T07:33:17.335Z,20.60
2023-04-16T07:35:46.327Z,21.20
2023-04-16T07:38:16.301Z,21.17
2023-04-16T07:40:44.999Z,21.03
2023-04-16T07:43:15.208Z,21.13
2023-04-16T07:45:44.016Z,19.43
2023-04-16T07:48:12.648Z,20.93
2023-04-16T07:50:43.632Z,19.03
2023-04-16T07:53:12.472Z,19.77
2023-04-16T07:55:41.375Z,20.40
2023-04-16T07:58:10.412Z,19.23
2023-04-16T08:00:39.498Z,18.87
2023-04-16T08:03:08.347Z,19.23
2023-04-16T08:05:37.154Z,18.57
2023-04-16T08:08:07.227Z,17.83
2023-04-16T08:10:36.039Z,18.30
2023-04-16T08:13:04.826Z,18.70
2023-04-16T08:15:33.554Z,18.13
2023-04-16T08:18:02.171Z,17.03
2023-04-16T08:20:31.472Z,17.40
2023-04-16T08:23:00.136Z,18.47
2023-04-16T08:25:30.188Z,17.07
2023-04-16T08:27:58.854Z,15.77
2023-04-16T08:30:27.550Z,15.63
2023-04-16T08:32:56.406Z,15.70
2023-04-16T08:35:25.141Z,15.57
2023-04-16T08:37:53.792Z,15.20
2023-04-16T08:40:22.739Z,12.17
2023-04-16T08:42:56.188Z,12.30
2023-04-16T08:45:27.015Z,12.37
2023-04-16T08:47:55.961Z,11.53
2023-04-16T08:50:26.750Z,12.00
2023-04-16T08:52:59.836Z,12.50
2023-04-16T08:55:36.957Z,12.23
2023-04-16T08:58:10.874Z,11.73
2023-04-16T09:00:41.858Z,10.70
2023-04-16T09:03:11.286Z,11.00
2023-04-16T09:05:40.904Z,11.57
2023-04-16T09:08:09.790Z,10.93
2023-04-16T09:10:38.427Z,11.23
2023-04-16T09:13:09.519Z,10.23
2023-04-16T09:15:39.002Z,9.90
2023-04-16T09:18:08.669Z,10.20
2023-04-16T09:20:37.420Z,9.30
2023-04-16T09:23:06.179Z,9.13
2023-04-16T09:25:36.467Z,10.20
2023-04-16T09:28:05.342Z,9.53
2023-04-16T09:30:37.141Z,8.87
2023-04-16T09:33:17.524Z,9.20
2023-04-16T09:35:47.771Z,8.47
2023-04-16T09:38:16.842Z,8.20
2023-04-16T09:40:47.456Z,7.40
2023-04-16T09:43:17.669Z,7.60
2023-04-16T09:45:52.086Z,7.93
2023-04-16T09:48:30.977Z,6.80
2023-04-16T09:51:00.151Z,7.20
2023-04-16T09:53:30.138Z,6.47
2023-04-16T09:55:59.932Z,6.30
2023-04-16T09:58:29.228Z,7.13
2023-04-16T10:01:03.121Z,6.50
2023-04-16T10:03:32.826Z,6.37
2023-04-16T10:06:03.110Z,7.37
2023-04-16T10:08:31.689Z,6.30
2023-04-16T10:11:01.349Z,6.43
2023-04-16T10:13:31.251Z,6.20
2023-04-16T10:16:01.458Z,6.30
2023-04-16T10:18:30.777Z,6.27
2023-04-16T10:21:00.066Z,6.10
2023-04-16T10:23:28.824Z,5.97
2023-04-16T10:25:59.576Z,6.90
2023-04-16T10:28:29.282Z,6.57
2023-04-16T10:31:00.881Z,5.60
2023-04-16T10:33:32.818Z,6.90
2023-04-16T10:36:12.409Z,6.73
2023-04-16T10:38:42.465Z,6.40
2023-04-16T10:41:11.421Z,6.90
2023-04-16T10:43:45.397Z,7.27
2023-04-16T10:46:26.868Z,5.90
2023-04-16T10:48:56.879Z,6.10
2023-04-16T10:51:28.858Z,6.00
2023-04-16T10:53:58.601Z,6.30
2023-04-16T10:56:27.967Z,6.50
2023-04-16T10:58:59.677Z,5.43
2023-04-16T11:01:34.056Z,6.47
2023-04-16T11:04:28.757Z,6.83
2023-04-16T11:07:05.770Z,6.57
2023-04-16T11:09:59.880Z,6.03
2023-04-16T11:12:35.807Z,5.87
2023-04-16T11:15:06.713Z,5.50
2023-04-16T11:17:39.893Z,5.30
2023-04-16T11:20:20.263Z,6.17
2023-04-16T11:22:49.813Z,6.23
2023-04-16T11:25:21.168Z,6.03
2023-04-16T11:27:49.842Z,6.00
2023-04-16T11:30:19.022Z,5.93
2023-04-16T11:32:49.110Z,6.03
2023-04-16T11:35:19.339Z,6.67
2023-04-16T11:37:49.050Z,6.20
2023-04-16T11:40:17.727Z,5.97
2023-04-16T11:42:46.345Z,6.57
2023-04-16T11:45:14.954Z,6.10
2023-04-16T11:47:51.887Z,6.50
2023-04-16T11:50:22.664Z,6.50
2023-04-16T11:52:53.021Z,6.10
2023-04-16T11:55:22.283Z,6.60
2023-04-16T11:57:51.744Z,7.07
2023-04-16T12:00:24.384Z,6.63
2023-04-16T12:02:55.871Z,7.20
2023-04-16T12:05:30.686Z,7.70
2023-04-16T12:08:00.075Z,7.33
2023-04-16T12:10:28.841Z,7.53
2023-04-16T12:13:11.510Z,7.50
2023-04-16T12:15:50.064Z,7.50
2023-04-16T12:18:22.478Z,7.40
2023-04-16T12:20:51.927Z,6.90
2023-04-16T12:23:27.844Z,7.20
2023-04-16T12:25:59.689Z,6.37
2023-04-16T12:28:30.303Z,6.23
2023-04-16T12:30:59.168Z,6.23
2023-04-16T12:33:29.505Z,6.83
2023-04-16T12:35:58.533Z,9.17
2023-04-16T12:38:27.867Z,8.00
2023-04-16T12:40:57.739Z,7.13
2023-04-16T12:43:26.734Z,5.90
2023-04-16T12:45:55.469Z,5.40
2023-04-16T12:48:27.162Z,6.60
2023-04-16T12:50:57.174Z,5.97
2023-04-16T12:53:26.172Z,5.87
2023-04-16T12:55:54.971Z,4.83
2023-04-16T12:58:23.620Z,4.90
2023-04-16T13:00:52.317Z,4.83
2023-04-16T13:03:22.061Z,5.13
2023-04-16T13:05:51.190Z,4.70
2023-04-16T13:08:21.827Z,5.00
2023-04-16T13:10:50.612Z,4.80
2023-04-16T13:13:19.287Z,3.27
2023-04-16T13:15:48.044Z,3.30
2023-04-16T13:18:16.810Z,3.07
2023-04-16T13:20:45.525Z,3.40
2023-04-16T13:23:14.278Z,3.00
2023-04-16T13:25:44.381Z,3.20
2023-04-16T13:28:13.129Z,3.10
2023-04-16T13:30:42.044Z,3.23
2023-04-16T13:33:10.870Z,3.40
2023-04-16T13:35:40.729Z,3.40
2023-04-16T13:38:09.430Z,3.37
2023-04-16T13:40:38.008Z,3.30
2023-04-16T13:43:08.036Z,2.80
2023-04-16T13:45:39.088Z,2.73
2023-04-16T13:48:07.720Z,3.10
2023-04-16T13:50:36.412Z,3.27
2023-04-16T13:53:05.411Z,3.40
2023-04-16T13:55:34.107Z,3.47
2023-04-16T13:58:02.836Z,3.23
2023-04-16T14:00:32.800Z,3.60
2023-04-16T14:03:01.673Z,3.30
2023-04-16T14:05:30.462Z,3.00
2023-04-16T14:07:59.273Z,3.70
2023-04-16T14:10:27.951Z,3.53
2023-04-16T14:12:56.905Z,3.77
2023-04-16T14:15:27.513Z,4.07
2023-04-16T14:17:57.603Z,3.67
2023-04-16T14:20:26.343Z,3.67
2023-04-16T14:22:54.858Z,3.87
2023-04-16T14:25:23.647Z,3.57
2023-04-16T14:27:52.356Z,4.10
2023-04-16T14:30:21.153Z,4.47
2023-04-16T14:32:50.185Z,4.40
2023-04-16T14:35:20.432Z,4.13
2023-04-16T14:37:49.193Z,4.07
2023-04-16T14:40:17.927Z,3.60
2023-04-16T14:42:46.696Z,3.70
2023-04-16T14:45:16.010Z,3.40
2023-04-16T14:47:48.174Z,3.67
2023-04-16T14:50:16.928Z,3.77
2023-04-16T14:52:47.071Z,4.23
2023-04-16T14:55:15.793Z,3.53
2023-04-16T14:57:44.433Z,3.43
2023-04-16T15:00:17.196Z,5.30
2023-04-16T15:02:47.296Z,5.13
2023-04-16T15:05:16.390Z,5.60
2023-04-16T15:07:46.499Z,4.30
2023-04-16T15:10:15.535Z,4.30
2023-04-16T15:12:44.239Z,4.77
2023-04-16T15:15:13.110Z,4.60
2023-04-16T15:17:41.987Z,10.23
2023-04-16T15:20:11.855Z,12.53
2023-04-16T15:22:42.034Z,13.90
2023-04-16T15:25:12.515Z,15.30
2023-04-16T15:27:41.369Z,15.23
2023-04-16T15:30:11.410Z,17.10
2023-04-16T15:32:40.115Z,16.93
2023-04-16T15:35:11.208Z,15.67
2023-04-16T15:37:40.377Z,16.13
2023-04-16T15:40:09.649Z,17.37
2023-04-16T15:42:40.404Z,17.37
2023-04-16T15:45:09.376Z,18.40
2023-04-16T15:47:40.183Z,17.70
2023-04-16T15:50:10.652Z,16.57
2023-04-16T15:52:39.568Z,16.93
2023-04-16T15:55:08.736Z,16.87
2023-04-16T15:57:38.881Z,16.00
2023-04-16T16:00:13.494Z,16.93
2023-04-16T16:02:42.987Z,17.40
2023-04-16T16:05:12.816Z,16.97
2023-04-16T16:07:41.952Z,16.77
2023-04-16T16:10:12.925Z,16.13
2023-04-16T16:12:43.228Z,16.60
2023-04-16T16:15:12.007Z,16.37
2023-04-16T16:17:41.287Z,16.63
2023-04-16T16:20:10.950Z,16.40
2023-04-16T16:22:40.633Z,16.43
2023-04-16T16:25:10.177Z,16.00
2023-04-16T16:27:40.565Z,17.80
2023-04-16T16:30:12.577Z,18.07
2023-04-16T16:32:43.027Z,17.63
2023-04-16T16:35:12.463Z,18.30
2023-04-16T16:37:41.377Z,18.17
2023-04-16T16:40:11.157Z,19.13
2023-04-16T16:42:39.953Z,18.80
2023-04-16T16:45:12.043Z,19.07
2023-04-16T16:47:40.882Z,20.27
2023-04-16T16:50:11.451Z,19.83
2023-04-16T16:52:40.162Z,19.50
2023-04-16T16:55:11.034Z,19.37
2023-04-16T16:57:39.794Z,19.77
2023-04-16T17:00:14.264Z,20.70
2023-04-16T17:02:44.606Z,20.10
2023-04-16T17:05:13.820Z,20.00
2023-04-16T17:07:42.467Z,20.57
2023-04-16T17:10:13.337Z,19.13
2023-04-16T17:12:42.125Z,19.60
2023-04-16T17:15:11.505Z,20.07
2023-04-16T17:17:40.296Z,19.70
2023-04-16T17:20:12.510Z,18.30
2023-04-16T17:22:41.525Z,20.53
2023-04-16T17:25:10.709Z,19.90
2023-04-16T17:27:39.408Z,21.13
2023-04-16T17:30:09.410Z,24.13
2023-04-16T17:32:38.072Z,22.33
2023-04-16T17:35:08.879Z,21.13
2023-04-16T17:37:38.967Z,21.07
2023-04-16T17:40:10.126Z,23.13
2023-04-16T17:42:39.458Z,24.47
2023-04-16T17:45:09.424Z,24.43
2023-04-16T17:47:38.694Z,24.20
2023-04-16T17:50:08.805Z,23.93
2023-04-16T17:52:39.104Z,24.30
2023-04-16T17:55:08.536Z,24.47
2023-04-16T17:57:37.366Z,26.37
2023-04-16T18:00:11.235Z,25.17
2023-04-16T18:02:43.822Z,25.03
2023-04-16T18:05:12.633Z,25.83
2023-04-16T18:07:43.715Z,25.13
2023-04-16T18:10:12.482Z,26.43
2023-04-16T18:12:41.127Z,25.20
2023-04-16T18:15:11.260Z,25.97
2023-04-16T18:17:39.964Z,26.70
2023-04-16T18:20:11.766Z,26.97
2023-04-16T18:22:40.452Z,25.87
2023-04-16T18:25:10.728Z,25.90
2023-04-16T18:27:39.423Z,25.60
2023-04-16T18:30:18.916Z,25.83
2023-04-16T18:33:16.536Z,24.20
2023-04-16T18:35:41.499Z,23.50
2023-04-16T18:38:10.340Z,23.40
2023-04-16T18:40:41.597Z,23.43
2023-04-16T18:43:10.393Z,23.70
2023-04-16T18:45:40.018Z,25.07
2023-04-16T18:48:08.798Z,24.53
2023-04-16T18:50:37.537Z,24.93
2023-04-16T18:53:06.165Z,25.73
2023-04-16T18:55:34.795Z,25.00
2023-04-16T18:58:04.827Z,26.37
2023-04-16T19:00:33.503Z,25.97
2023-04-16T19:03:06.900Z,25.87
2023-04-16T19:05:36.261Z,27.77
2023-04-16T19:08:05.041Z,25.40
2023-04-16T19:10:33.664Z,25.03
2023-04-16T19:13:02.463Z,26.20
2023-04-16T19:15:34.399Z,26.63
2023-04-16T19:18:03.632Z,26.23
2023-04-16T19:20:35.169Z,24.17
2023-04-16T19:23:05.446Z,24.90
2023-04-16T19:25:34.260Z,24.97
2023-04-16T19:28:03.486Z,24.80
2023-04-16T19:30:33.574Z,23.97
2023-04-16T19:33:02.265Z,23.73
2023-04-16T19:35:31.171Z,24.93
2023-04-16T19:37:59.943Z,24.47
2023-04-16T19:40:28.656Z,25.17
2023-04-16T19:42:57.444Z,24.60
2023-04-16T19:45:27.233Z,23.43
2023-04-16T19:47:57.361Z,25.13
2023-04-16T19:50:26.012Z,24.07
2023-04-16T19:52:54.805Z,25.40
2023-04-16T19:55:23.492Z,25.03
2023-04-16T19:57:52.250Z,25.87
2023-04-16T20:00:21.218Z,25.23
2023-04-16T20:02:50.037Z,26.37
2023-04-16T20:05:20.355Z,27.60
2023-04-16T20:07:50.777Z,28.87
2023-04-16T20:10:21.051Z,30.37
2023-04-16T20:12:50.852Z,29.83
2023-04-16T20:15:19.807Z,32.43
2023-04-16T20:17:48.492Z,31.80
2023-04-16T20:20:17.457Z,33.37
2023-04-16T20:22:47.481Z,32.20
2023-04-16T20:25:19.042Z,31.77
2023-04-16T20:27:47.805Z,32.77
2023-04-16T20:30:16.796Z,31.07
2023-04-16T20:32:45.502Z,29.70
2023-04-16T20:35:14.300Z,31.90
2023-04-16T20:37:43.201Z,29.37
2023-04-16T20:40:14.969Z,30.13
2023-04-16T20:42:46.258Z,28.80
2023-04-16T20:45:15.609Z,28.83
2023-04-16T20:47:44.586Z,27.80
2023-04-16T20:50:13.695Z,29.27
2023-04-16T20:52:43.248Z,27.83
2023-04-16T20:55:13.397Z,27.17
2023-04-16T20:57:42.138Z,27.93
2023-04-16T21:00:12.156Z,28.37
2023-04-16T21:02:41.266Z,29.17
2023-04-16T21:05:14.180Z,27.23
2023-04-16T21:07:42.989Z,27.20
2023-04-16T21:10:20.165Z,27.50
2023-04-16T21:12:49.172Z,26.60
2023-04-16T21:15:18.088Z,27.80
2023-04-16T21:17:46.873Z,29.00
2023-04-16T21:20:15.817Z,29.43
2023-04-16T21:22:44.576Z,29.97
2023-04-16T21:25:14.728Z,29.93
2023-04-16T21:27:43.496Z,29.70
2023-04-16T21:30:13.254Z,28.37
2023-04-16T21:32:41.940Z,28.20
2023-04-16T21:35:10.982Z,29.43
2023-04-16T21:37:39.832Z,29.17
2023-04-16T21:40:09.461Z,28.60
2023-04-16T21:42:40.014Z,28.73
2023-04-16T21:45:10.072Z,28.70
2023-04-16T21:47:38.907Z,30.30
2023-04-16T21:50:08.742Z,29.63
2023-04-16T21:52:40.573Z,30.17
2023-04-16T21:55:10.413Z,29.13
2023-04-16T21:57:40.812Z,30.60
2023-04-16T22:00:13.574Z,28.27
2023-04-16T22:02:43.011Z,30.50
2023-04-16T22:05:12.165Z,29.20
2023-04-16T22:07:40.964Z,29.10
2023-04-16T22:10:11.745Z,29.07
2023-04-16T22:12:44.861Z,29.37
2023-04-16T22:15:14.419Z,29.00
2023-04-16T22:17:43.379Z,27.90
2023-04-16T22:20:13.344Z,28.43
2023-04-16T22:22:42.598Z,29.57
2023-04-16T22:25:11.533Z,27.97
2023-04-16T22:27:40.650Z,29.30
2023-04-16T22:30:12.096Z,29.70
2023-04-16T22:32:40.918Z,29.67
2023-04-16T22:35:10.388Z,30.97
2023-04-16T22:37:39.085Z,30.83
2023-04-16T22:40:10.894Z,30.53
2023-04-16T22:42:39.524Z,30.13
2023-04-16T22:45:10.287Z,31.23
2023-04-16T22:47:39.036Z,31.70
2023-04-16T22:50:10.725Z,33.70
2023-04-16T22:52:39.353Z,35.40
2023-04-16T22:55:08.949Z,36.27
2023-04-16T22:57:37.638Z,35.90
2023-04-16T23:00:11.309Z,31.70
2023-04-16T23:02:41.513Z,35.33
2023-04-16T23:05:10.765Z,33.87
2023-04-16T23:07:39.454Z,32.70
2023-04-16T23:10:09.096Z,39.13
2023-04-16T23:12:38.273Z,40.90
2023-04-16T23:15:07.912Z,35.20
2023-04-16T23:17:36.581Z,33.50
2023-04-16T23:20:08.852Z,31.53
2023-04-16T23:22:37.732Z,31.53
2023-04-16T23:25:07.831Z,31.93
2023-04-16T23:27:36.680Z,31.30
2023-04-16T23:30:06.789Z,28.77
2023-04-16T23:32:35.816Z,28.87
2023-04-16T23:35:06.226Z,29.33
2023-04-16T23:37:34.841Z,27.33
2023-04-16T23:40:03.854Z,27.03
2023-04-16T23:42:32.517Z,26.83
2023-04-16T23:45:01.293Z,26.10
2023-04-16T23:47:30.433Z,26.83
2023-04-16T23:49:59.132Z,24.67
2023-04-16T23:52:29.228Z,25.57
2023-04-16T23:54:57.805Z,23.93
2023-04-16T23:57:26.521Z,23.37
2023-04-16T23:59:55.275Z,23.53
